Time;durP1;ratioP1;P1;durP2;ratioP2;P2;SDS_P1;SDS_P2;PMS_P1;PMS_P2;Temp;Humidity;BMP_temperature;BMP_pressure;BME280_temperature;BME280_humidity;BME280_pressure;Samples;Min_cycle;Max_cycle;Signal;HPM_P1;HPM_P2
2023/08/31 00:01:20;;;;;;;0.50;0.50;;;23.20;61.90;;;23.49;46.90;94293.72;4993528;28;20190;-32
2023/08/31 00:03:47;;;;;;;0.40;0.40;;;23.20;61.90;;;23.51;46.99;94290.78;4993484;28;20215;-30
2023/08/31 00:06:14;;;;;;;0.40;0.40;;;23.20;61.90;;;23.50;47.00;94295.31;4993706;28;20197;-32
2023/08/31 00:08:41;;;;;;;0.40;0.40;;;23.20;61.90;;;23.50;47.18;94300.66;5077153;28;20296;-31
2023/08/31 00:11:08;;;;;;;0.32;0.32;;;23.20;61.90;;;23.50;46.96;94299.88;4993676;28;20288;-32
2023/08/31 00:13:36;;;;;;;0.40;0.40;;;23.20;61.90;;;23.49;47.05;94298.28;5008618;28;20205;-36
2023/08/31 00:16:03;;;;;;;0.40;0.40;;;23.20;61.90;;;23.51;46.89;94293.44;4993157;28;20625;-34
2023/08/31 00:18:31;;;;;;;0.40;0.40;;;23.20;62.00;;;23.52;47.11;94300.38;4993140;28;20208;-31
2023/08/31 00:20:58;;;;;;;0.40;0.40;;;23.20;61.90;;;23.50;46.90;94303.34;4993541;28;20531;-31
2023/08/31 00:23:26;;;;;;;0.40;0.40;;;23.20;61.80;;;23.51;47.04;94298.78;4993254;28;20193;-33
2023/08/31 00:25:53;;;;;;;0.40;0.40;;;23.20;61.90;;;23.51;47.25;94304.16;4993450;28;20305;-33
2023/08/31 00:28:21;;;;;;;0.40;0.40;;;23.20;62.00;;;23.52;47.47;94296.91;4993030;28;20207;-31
2023/08/31 00:30:48;;;;;;;0.40;0.40;;;23.20;61.90;;;23.54;47.29;94300.09;4993099;28;20551;-32
2023/08/31 00:33:16;;;;;;;0.32;0.32;;;23.20;62.00;;;23.53;47.07;94304.63;4993355;28;20209;-32
2023/08/31 00:35:48;;;;;;;0.40;0.40;;;23.20;62.90;;;23.53;46.98;94307.31;4992900;28;20601;-33
2023/08/31 00:38:16;;;;;;;0.32;0.32;;;23.20;61.90;;;23.52;47.01;94305.72;4992675;28;20574;-31
2023/08/31 00:40:47;;;;;;;0.38;0.38;;;23.20;61.90;;;23.51;47.12;94298.78;5008375;28;20292;-32
2023/08/31 00:43:17;;;;;;;0.40;0.40;;;23.20;62.70;;;23.51;46.99;94309.50;5008899;28;20189;-32
2023/08/31 00:45:50;;;;;;;0.30;0.30;;;23.20;61.70;;;23.49;47.00;94311.66;4993431;28;20192;-34
2023/08/31 00:48:18;;;;;;;0.40;0.40;;;23.30;61.80;;;23.47;46.85;94309.28;4992634;28;20207;-33
2023/08/31 00:50:46;;;;;;;0.40;0.40;;;23.20;61.70;;;23.47;46.75;94311.97;4993401;28;20233;-32
2023/08/31 00:53:15;;;;;;;0.45;0.45;;;23.20;61.80;;;23.46;46.89;94306.88;4991958;28;20551;-35
2023/08/31 00:55:44;;;;;;;0.40;0.40;;;23.20;61.80;;;23.46;47.15;94315.72;4991810;28;20221;-33
2023/08/31 00:58:12;;;;;;;0.40;0.40;;;23.20;61.90;;;23.45;47.08;94316.78;4992422;28;20641;-31
2023/08/31 01:01:18;;;;;;;0.40;0.40;;;23.20;61.90;;;23.45;46.98;94322.16;4992701;28;20688;-31
2023/08/31 01:04:16;;;;;;;0.40;0.40;;;23.20;61.90;;;23.42;47.33;94325.38;4993302;28;20178;-30
2023/08/31 01:07:03;;;;;;;0.40;0.40;;;23.20;61.90;;;23.43;47.02;94326.19;4975701;28;20194;-30
2023/08/31 01:10:07;;;;;;;0.40;0.40;;;23.20;61.80;;;23.40;46.96;94321.41;4992523;28;20258;-30
2023/08/31 01:13:14;;;;;;;0.40;0.40;;;23.10;61.80;;;23.40;47.26;94318.72;4992649;28;20269;-30
2023/08/31 01:15:53;;;;;;;0.38;0.38;;;23.20;62.00;;;23.39;47.41;94325.16;4992879;28;20248;-31
2023/08/31 01:18:25;;;;;;;0.40;0.40;;;23.20;61.90;;;23.41;47.24;94323.00;5076250;28;20240;-30
2023/08/31 01:21:02;;;;;;;0.40;0.40;;;23.20;62.00;;;23.42;47.11;94320.03;4991752;28;20182;-30
2023/08/31 01:23:56;;;;;;;0.40;0.40;;;23.10;62.00;;;23.40;46.94;94321.41;5076628;28;20257;-31
2023/08/31 01:26:25;;;;;;;0.40;0.40;;;23.10;61.90;;;23.39;46.84;94322.47;5007815;28;20537;-30
2023/08/31 01:28:53;;;;;;;0.40;0.40;;;23.10;61.70;;;23.37;46.97;94314.75;4992218;28;20202;-30
2023/08/31 01:31:20;;;;;;;0.40;0.40;;;23.10;61.70;;;23.36;47.20;94320.41;5076178;28;20193;-31
2023/08/31 01:33:48;;;;;;;0.50;0.50;;;23.10;61.80;;;23.36;47.12;94326.53;4992249;28;20225;-32
2023/08/31 01:36:35;;;;;;;0.40;0.40;;;23.10;61.70;;;23.34;46.95;94329.50;4992544;28;20562;-32
2023/08/31 01:39:26;;;;;;;0.50;0.50;;;23.10;61.90;;;23.34;46.96;94324.16;5076372;28;20286;-30
2023/08/31 01:42:02;;;;;;;0.30;0.30;;;23.10;61.90;;;23.35;46.99;94322.25;4992502;28;20185;-30
2023/08/31 01:44:32;;;;;;;0.40;0.40;;;23.10;62.10;;;23.37;47.39;94324.66;5058447;28;20215;-30
2023/08/31 01:47:05;;;;;;;0.40;0.40;;;23.10;62.10;;;23.37;47.10;94328.13;4992172;28;20271;-30
2023/08/31 01:49:40;;;;;;;0.40;0.40;;;23.10;63.00;;;23.35;47.21;94324.94;5007343;28;20213;-30
2023/08/31 01:52:07;;;;;;;0.40;0.40;;;23.10;62.00;;;23.36;47.29;94326.53;4992289;28;20185;-31
2023/08/31 01:54:34;;;;;;;0.47;0.47;;;23.10;62.00;;;23.35;46.98;94327.63;4991082;28;20715;-30
2023/08/31 01:57:02;;;;;;;0.40;0.40;;;23.10;62.00;;;23.34;47.22;94321.47;5075769;28;20205;-32
2023/08/31 01:59:30;;;;;;;0.40;0.40;;;23.10;61.80;;;23.33;46.99;94327.91;5058856;28;20287;-30
2023/08/31 02:01:58;;;;;;;0.40;0.40;;;23.10;61.90;;;23.33;47.22;94324.44;5010736;28;20251;-30
2023/08/31 02:04:25;;;;;;;0.40;0.40;;;23.10;61.90;;;23.33;47.31;94330.59;5010729;28;20205;-30
2023/08/31 02:06:52;;;;;;;0.40;0.40;;;23.10;61.90;;;23.32;47.25;94328.19;5010669;28;20266;-31
2023/08/31 02:09:20;;;;;;;0.30;0.30;;;23.10;61.90;;;23.33;47.09;94330.59;4995215;28;20212;-33
2023/08/31 02:11:48;;;;;;;0.40;0.40;;;23.10;62.00;;;23.32;47.06;94334.34;4994271;28;20271;-31
2023/08/31 02:14:15;;;;;;;0.38;0.38;;;23.10;62.10;;;23.33;47.18;94343.19;4994192;28;20230;-30
2023/08/31 02:16:42;;;;;;;0.40;0.40;;;23.00;61.80;;;23.30;46.94;94335.72;4995139;28;20628;-31
2023/08/31 02:19:09;;;;;;;0.40;0.40;;;23.00;61.80;;;23.31;47.33;94337.31;4994989;28;20662;-30
2023/08/31 02:21:38;;;;;;;0.40;0.40;;;23.00;61.90;;;23.30;47.34;94335.72;4994173;28;20285;-30
2023/08/31 02:24:05;;;;;;;0.40;0.40;;;23.00;61.90;;;23.30;47.23;94336.53;4995013;28;20200;-29
2023/08/31 02:26:36;;;;;;;0.40;0.40;;;23.00;61.90;;;23.30;47.22;94335.72;4995530;28;20197;-29
2023/08/31 02:29:03;;;;;;;0.60;0.60;;;23.00;62.00;;;23.29;47.33;94332.25;4995230;28;20270;-31
2023/08/31 02:31:32;;;;;;;0.43;0.43;;;23.00;61.80;;;23.29;47.29;94334.94;5010268;28;20668;-30
2023/08/31 02:33:59;;;;;;;0.43;0.43;;;23.00;61.90;;;23.27;47.16;94337.09;5010231;28;20258;-29
2023/08/31 02:36:27;;;;;;;0.40;0.40;;;23.00;61.90;;;23.27;47.05;94334.41;5010213;28;20201;-30
2023/08/31 02:38:54;;;;;;;0.40;0.40;;;23.00;62.80;;;23.27;47.33;94338.97;4994639;28;20195;-30
2023/08/31 02:41:21;;;;;;;0.40;0.40;;;23.00;62.00;;;23.28;47.19;94346.72;4994764;28;20194;-29
2023/08/31 02:43:51;;;;;;;0.38;0.38;;;23.00;61.90;;;23.29;47.31;94342.94;4994994;28;20607;-31
2023/08/31 02:46:19;;;;;;;0.40;0.40;;;23.00;62.10;;;23.28;47.55;94336.00;4994978;28;20192;-30
2023/08/31 02:48:46;;;;;;;0.40;0.40;;;23.00;62.10;;;23.32;47.31;94345.03;5078468;28;20633;-30
2023/08/31 02:51:14;;;;;;;0.40;0.40;;;23.00;62.00;;;23.31;47.34;94338.13;4994862;28;20225;-30
2023/08/31 02:53:41;;;;;;;0.40;0.40;;;23.00;62.10;;;23.32;47.23;94345.03;4994866;28;20212;-31
2023/08/31 02:56:09;;;;;;;0.40;0.40;;;23.00;62.00;;;23.33;47.47;94345.84;4994555;28;20273;-30
2023/08/31 02:58:36;;;;;;;0.40;0.40;;;23.00;62.10;;;23.33;47.46;94343.19;4994599;28;20280;-30
2023/08/31 03:01:12;;;;;;;0.47;0.47;;;23.10;62.10;;;23.34;47.51;94340.22;4994627;28;20189;-30
2023/08/31 03:03:45;;;;;;;0.43;0.43;;;23.10;62.10;;;23.34;47.61;94339.44;5058919;28;20212;-30
2023/08/31 03:06:13;;;;;;;0.38;0.38;;;23.10;62.10;;;23.34;47.37;94342.88;5010586;28;20245;-30
2023/08/31 03:08:40;;;;;;;0.40;0.40;;;23.10;62.10;;;23.34;47.60;94342.88;5078322;28;20297;-31
2023/08/31 03:11:07;;;;;;;0.30;0.30;;;23.10;62.10;;;23.36;47.31;94341.81;5076744;28;20212;-30
2023/08/31 03:13:35;;;;;;;0.40;0.40;;;23.10;62.10;;;23.36;47.51;94334.56;5009701;28;20201;-30
2023/08/31 03:16:03;;;;;;;0.40;0.40;;;23.10;62.10;;;23.37;47.39;94338.84;5060948;28;20276;-30
2023/08/31 03:18:30;;;;;;;0.40;0.40;;;23.10;62.20;;;23.38;47.44;94342.31;4994097;28;20198;-30
2023/08/31 03:20:57;;;;;;;0.40;0.40;;;23.10;62.10;;;23.37;47.41;94333.47;5009518;28;20202;-30
2023/08/31 03:23:25;;;;;;;0.40;0.40;;;23.10;62.00;;;23.37;47.51;94327.34;5009485;28;20197;-31
2023/08/31 03:25:52;;;;;;;0.40;0.40;;;23.10;62.00;;;23.37;47.50;94320.09;4994093;28;20284;-31
2023/08/31 03:28:21;;;;;;;0.40;0.40;;;23.10;62.10;;;23.38;47.36;94326.28;5060853;28;20210;-31
2023/08/31 03:30:55;;;;;;;0.40;0.40;;;23.10;62.00;;;23.37;47.45;94330.81;5009251;28;20229;-30
2023/08/31 03:33:23;;;;;;;0.32;0.32;;;23.10;62.10;;;23.37;47.63;94333.47;4993113;28;20197;-30
2023/08/31 03:35:50;;;;;;;0.40;0.40;;;23.10;62.10;;;23.38;47.30;94337.75;5009295;28;20228;-30
2023/08/31 03:38:17;;;;;;;0.38;0.38;;;23.10;62.00;;;23.38;47.32;94345.78;5009318;28;20217;-30
2023/08/31 03:40:57;;;;;;;0.40;0.40;;;23.20;62.10;;;23.38;47.50;94347.69;4992722;28;20577;-32
2023/08/31 03:43:24;;;;;;;0.50;0.50;;;23.10;62.00;;;23.37;47.38;94343.41;5009260;28;20197;-31
2023/08/31 03:45:56;;;;;;;0.40;0.40;;;23.20;62.00;;;23.38;47.44;94345.00;4994303;28;20241;-30
2023/08/31 03:48:24;;;;;;;0.35;0.35;;;23.10;61.90;;;23.37;47.37;94343.41;4993763;28;20210;-30
2023/08/31 03:50:53;;;;;;;0.40;0.40;;;23.10;61.90;;;23.35;47.22;94341.00;4992617;28;20213;-30
2023/08/31 03:53:22;;;;;;;0.40;0.40;;;23.10;61.90;;;23.35;47.26;94343.66;4992805;28;20205;-29
2023/08/31 03:55:52;;;;;;;0.38;0.38;;;23.10;62.00;;;23.34;47.30;94350.91;4993119;28;20210;-30
2023/08/31 03:58:20;;;;;;;0.30;0.30;;;23.10;61.90;;;23.34;47.30;94344.78;5008980;28;20561;-30
2023/08/31 04:00:50;;;;;;;0.40;0.40;;;23.10;62.00;;;23.33;47.43;94354.66;4992519;28;20280;-30
2023/08/31 04:03:18;;;;;;;0.40;0.40;;;23.10;62.00;;;23.33;47.37;94352.00;5008954;28;20208;-30
2023/08/31 04:05:47;;;;;;;0.40;0.40;;;23.10;61.90;;;23.32;47.38;94354.97;5008925;28;20218;-32
2023/08/31 04:08:14;;;;;;;0.30;0.30;;;23.10;61.90;;;23.33;47.18;94359.22;4993502;28;20285;-30
2023/08/31 04:10:41;;;;;;;0.40;0.40;;;23.10;62.00;;;23.32;47.19;94360.31;5008763;28;20620;-31
2023/08/31 04:13:09;;;;;;;0.30;0.30;;;23.10;61.90;;;23.32;47.22;94357.63;4992712;28;20224;-30
2023/08/31 04:15:36;;;;;;;0.50;0.50;;;23.10;62.00;;;23.30;47.25;94365.97;5008657;28;20305;-30
2023/08/31 04:18:04;;;;;;;0.40;0.40;;;23.10;61.90;;;23.31;47.26;94366.75;4993227;28;20388;-31
2023/08/31 04:20:33;;;;;;;0.35;0.35;;;23.10;61.90;;;23.30;47.36;94365.97;4993381;28;20538;-30
2023/08/31 04:23:00;;;;;;;0.40;0.40;;;23.10;62.00;;;23.30;47.47;94365.16;5076216;28;20220;-30
2023/08/31 04:25:31;;;;;;;0.50;0.50;;;23.10;62.00;;;23.30;47.28;94370.50;4993245;28;20210;-30
2023/08/31 04:27:58;;;;;;;0.45;0.45;;;23.10;61.90;;;23.28;47.13;94368.13;4993217;28;20597;-30
2023/08/31 04:30:26;;;;;;;0.30;0.30;;;23.00;61.80;;;23.30;47.17;94367.81;4993127;28;20197;-30
2023/08/31 04:32:53;;;;;;;0.40;0.40;;;23.00;61.80;;;23.27;47.18;94379.91;4993139;28;20533;-30
2023/08/31 04:35:21;;;;;;;0.40;0.40;;;23.00;61.70;;;23.26;47.34;94383.66;4993562;28;20215;-30
2023/08/31 04:37:48;;;;;;;0.30;0.30;;;23.00;61.90;;;23.26;47.13;94380.19;4993053;28;20186;-30
2023/08/31 04:40:15;;;;;;;0.40;0.40;;;23.00;61.90;;;23.24;47.14;94387.69;4992866;28;20285;-30
2023/08/31 04:42:42;;;;;;;0.32;0.32;;;23.00;61.90;;;23.25;47.28;94383.94;4992988;28;20218;-30
2023/08/31 04:45:11;;;;;;;0.40;0.40;;;23.00;61.80;;;23.23;47.18;94384.22;4992918;28;20218;-30
2023/08/31 04:47:38;;;;;;;0.38;0.38;;;23.00;61.90;;;23.24;47.50;94390.38;4993025;28;20198;-30
2023/08/31 04:50:06;;;;;;;0.32;0.32;;;23.00;61.90;;;23.24;47.14;94390.38;5076355;28;20294;-31
2023/08/31 04:52:34;;;;;;;0.30;0.30;;;23.00;61.80;;;23.24;47.29;94387.69;4993115;28;20633;-30
2023/08/31 04:55:07;;;;;;;0.40;0.40;;;23.00;61.80;;;23.23;47.19;94389.59;4993017;28;20217;-30
2023/08/31 04:57:34;;;;;;;0.50;0.50;;;23.00;61.90;;;23.22;47.32;94382.63;4993114;28;20184;-31
2023/08/31 05:00:03;;;;;;;0.38;0.38;;;23.00;61.90;;;23.23;47.31;94386.91;4993043;28;20204;-30
2023/08/31 05:02:30;;;;;;;0.40;0.40;;;23.00;61.90;;;23.22;47.22;94396.00;4993004;28;20200;-31
2023/08/31 05:04:57;;;;;;;0.40;0.40;;;23.00;61.90;;;23.20;47.08;94395.50;4992956;28;20205;-29
2023/08/31 05:07:24;;;;;;;0.40;0.40;;;23.00;61.90;;;23.21;47.18;94404.31;4992939;28;20204;-30
2023/08/31 05:09:51;;;;;;;0.40;0.40;;;23.00;61.80;;;23.20;47.15;94392.03;4992954;28;20522;-30
2023/08/31 05:12:18;;;;;;;0.40;0.40;;;23.00;61.80;;;23.19;47.08;94393.88;4991708;28;20208;-30
2023/08/31 05:14:45;;;;;;;0.47;0.47;;;23.00;61.90;;;23.19;47.31;94393.88;4993046;28;20272;-30
2023/08/31 05:17:12;;;;;;;0.45;0.45;;;23.00;62.00;;;23.19;47.36;94399.25;4992512;28;20233;-30
2023/08/31 05:19:39;;;;;;;0.32;0.32;;;22.90;61.90;;;23.21;47.33;94404.31;4992739;28;20216;-30
2023/08/31 05:22:06;;;;;;;0.40;0.40;;;23.00;62.10;;;23.20;47.27;94400.84;4992358;28;20236;-30
2023/08/31 05:24:33;;;;;;;0.40;0.40;;;23.00;62.00;;;23.22;47.18;94409.38;4993240;28;20284;-30
2023/08/31 05:27:00;;;;;;;0.40;0.40;;;23.00;62.00;;;23.21;47.32;94417.72;4992961;28;20221;-30
2023/08/31 05:29:27;;;;;;;0.40;0.40;;;23.00;61.90;;;23.21;47.21;94420.38;4992494;28;20293;-30
2023/08/31 05:31:54;;;;;;;0.40;0.40;;;23.00;62.00;;;23.20;47.27;94429.47;5075876;28;20274;-29
2023/08/31 05:34:25;;;;;;;0.50;0.50;;;23.00;61.80;;;23.21;47.12;94431.09;4993798;28;20204;-30
2023/08/31 05:36:52;;;;;;;0.60;0.60;;;23.00;61.80;;;23.18;47.10;94443.94;4995712;28;20217;-30
2023/08/31 05:39:19;;;;;;;0.43;0.43;;;23.00;61.90;;;23.18;47.33;94446.63;4995645;28;20305;-30
2023/08/31 05:41:46;;;;;;;0.40;0.40;;;23.00;61.90;;;23.18;47.03;94448.50;4995577;28;20198;-32
2023/08/31 05:44:13;;;;;;;0.40;0.40;;;22.90;61.80;;;23.18;47.22;94464.56;4995645;28;20202;-31
2023/08/31 05:46:41;;;;;;;0.35;0.35;;;23.00;61.90;;;23.17;47.32;94465.63;4995616;28;20283;-31
2023/08/31 05:49:08;;;;;;;0.35;0.35;;;22.90;61.80;;;23.16;47.11;94467.50;5079704;28;20623;-30
2023/08/31 05:51:36;;;;;;;0.40;0.40;;;23.00;61.80;;;23.15;47.27;94473.88;4995652;28;20205;-31
2023/08/31 05:54:03;;;;;;;0.35;0.35;;;22.90;61.80;;;23.15;47.60;94470.44;4995777;28;20284;-31
2023/08/31 05:56:30;;;;;;;0.43;0.43;;;23.00;61.90;;;23.17;47.08;94474.44;4995370;28;20615;-31
2023/08/31 05:58:58;;;;;;;0.40;0.40;;;23.00;61.90;;;23.18;47.48;94473.38;5010756;28;20251;-30
2023/08/31 06:01:25;;;;;;;0.40;0.40;;;22.90;61.90;;;23.18;47.22;94472.59;4995247;28;20194;-29
2023/08/31 06:03:52;;;;;;;0.40;0.40;;;23.00;62.00;;;23.20;47.24;94474.97;4995413;28;20201;-31
2023/08/31 06:06:19;;;;;;;0.40;0.40;;;23.00;62.00;;;23.21;47.20;94476.56;4995341;28;20640;-32
2023/08/31 06:08:47;;;;;;;0.45;0.45;;;23.00;62.00;;;23.21;47.60;94472.00;5011201;28;20233;-30
2023/08/31 06:11:15;;;;;;;0.30;0.30;;;23.00;62.00;;;23.23;47.43;94474.38;4995098;28;20209;-30
2023/08/31 06:13:42;;;;;;;0.30;0.30;;;23.00;62.00;;;23.24;47.36;94458.06;4995222;28;20202;-31
2023/08/31 06:16:09;;;;;;;0.35;0.35;;;23.00;62.00;;;23.23;47.39;94456.47;4994883;28;20772;-32
2023/08/31 06:18:36;;;;;;;0.30;0.30;;;23.00;62.10;;;23.24;47.41;94458.06;5079642;28;20262;-30
2023/08/31 06:21:03;;;;;;;0.40;0.40;;;23.00;62.00;;;23.26;47.41;94455.09;4995064;28;20587;-32
2023/08/31 06:23:30;;;;;;;0.50;0.50;;;23.00;62.00;;;23.27;47.19;94462.06;5062178;28;20281;-30
2023/08/31 06:25:57;;;;;;;0.40;0.40;;;23.00;62.00;;;23.27;47.26;94462.84;4995583;28;20278;-30
2023/08/31 06:28:25;;;;;;;0.50;0.50;;;23.00;62.90;;;23.28;47.47;94463.66;4995284;28;20292;-31
2023/08/31 06:30:52;;;;;;;0.30;0.30;;;23.00;62.00;;;23.29;47.29;94460.69;4995121;28;20284;-30
2023/08/31 06:33:19;;;;;;;0.40;0.40;;;23.00;62.00;;;23.29;47.29;94468.72;4994853;28;20240;-30
2023/08/31 06:35:51;;;;;;;0.30;0.30;;;23.00;61.90;;;23.30;47.20;94467.63;4994834;28;20240;-32
2023/08/31 06:38:19;;;;;;;0.40;0.40;;;23.10;62.00;;;23.30;47.53;94472.19;4995135;28;20178;-31
2023/08/31 06:40:47;;;;;;;0.40;0.40;;;23.10;62.00;;;23.31;47.42;94471.09;5078280;28;20193;-32
2023/08/31 06:43:14;;;;;;;0.38;0.38;;;23.10;62.00;;;23.31;47.58;94469.25;4994786;28;20189;-30
2023/08/31 06:45:42;;;;;;;0.30;0.30;;;23.10;62.00;;;23.33;47.45;94472.41;4994431;28;20596;-30
2023/08/31 06:48:09;;;;;;;0.40;0.40;;;23.10;61.90;;;23.33;47.49;94474.31;4994998;28;20190;-32
2023/08/31 06:50:36;;;;;;;0.50;0.50;;;23.10;62.10;;;23.33;47.56;94475.09;5009903;28;20205;-31
2023/08/31 06:53:04;;;;;;;0.40;0.40;;;23.10;62.00;;;23.34;47.58;94482.03;4994866;28;20216;-30
2023/08/31 06:55:31;;;;;;;0.30;0.30;;;23.10;61.90;;;23.36;47.54;94489.78;4994737;28;20222;-30
2023/08/31 06:58:00;;;;;;;0.30;0.30;;;23.10;61.90;;;23.37;47.48;94493.28;4994544;28;20259;-32
2023/08/31 07:00:28;;;;;;;0.32;0.32;;;23.10;61.90;;;23.38;47.33;94492.19;4994821;28;20190;-31
2023/08/31 07:02:55;;;;;;;0.40;0.40;;;23.20;62.00;;;23.38;47.24;94487.63;4994462;28;20221;-30
2023/08/31 07:05:27;;;;;;;0.40;0.40;;;23.20;62.00;;;23.38;47.28;94497.53;4994408;28;20691;-30
2023/08/31 07:07:55;;;;;;;0.40;0.40;;;23.20;62.00;;;23.39;47.57;94491.91;4994619;28;20214;-30
2023/08/31 07:10:22;;;;;;;0.40;0.40;;;23.20;61.90;;;23.40;47.19;94487.34;4994216;28;20556;-30
2023/08/31 07:12:49;;;;;;;0.30;0.30;;;23.20;61.90;;;23.40;47.20;94488.16;4994579;28;20602;-30
2023/08/31 07:15:17;;;;;;;0.32;0.32;;;23.20;61.80;;;23.41;47.27;94486.25;4994220;28;20524;-31
2023/08/31 07:17:44;;;;;;;0.30;0.30;;;23.20;62.90;;;23.43;47.46;94498.28;4994116;28;20616;-31
2023/08/31 07:20:12;;;;;;;0.30;0.30;;;23.20;62.00;;;23.45;47.64;94495.34;4994046;28;20276;-31
2023/08/31 07:22:40;;;;;;;0.40;0.40;;;23.20;62.00;;;23.46;47.46;94496.91;4994429;28;20630;-31
2023/08/31 07:25:08;;;;;;;0.30;0.30;;;23.20;62.00;;;23.47;47.26;94502.00;4994410;28;20213;-31
2023/08/31 07:27:35;;;;;;;0.40;0.40;;;23.20;61.90;;;23.48;47.48;94508.13;4994413;28;20262;-31
2023/08/31 07:30:04;;;;;;;0.40;0.40;;;23.30;62.00;;;23.50;47.39;94516.69;4994620;28;20214;-30
2023/08/31 07:32:31;;;;;;;0.30;0.30;;;23.30;62.00;;;23.50;47.34;94514.78;4993880;28;20584;-30
2023/08/31 07:34:59;;;;;;;0.40;0.40;;;23.20;61.80;;;23.53;46.92;94520.66;4993939;28;20293;-30
2023/08/31 07:37:26;;;;;;;0.30;0.30;;;23.30;61.90;;;23.51;47.23;94512.94;4994469;28;20213;-31
2023/08/31 07:39:53;;;;;;;0.30;0.30;;;23.30;61.80;;;23.50;47.05;94528.19;4993881;28;20311;-30
2023/08/31 07:42:20;;;;;;;0.30;0.30;;;23.30;61.70;;;23.50;47.04;94528.19;4993817;28;20189;-31
2023/08/31 07:44:48;;;;;;;0.40;0.40;;;23.30;61.70;;;23.49;47.24;94523.91;4994375;28;20574;-30
2023/08/31 07:47:15;;;;;;;0.35;0.35;;;23.30;61.50;;;23.48;46.99;94529.53;4994602;28;20634;-31
2023/08/31 07:49:42;;;;;;;0.40;0.40;;;23.30;61.70;;;23.48;46.71;94527.66;4993791;28;20198;-30
2023/08/31 07:52:09;;;;;;;0.40;0.40;;;23.30;61.60;;;23.48;46.82;94534.91;4993714;28;20296;-30
2023/08/31 07:54:36;;;;;;;0.40;0.40;;;23.30;61.60;;;23.48;47.07;94542.94;4993934;28;20509;-30
2023/08/31 07:57:03;;;;;;;0.50;0.50;;;23.30;61.60;;;23.48;46.95;94549.06;4993113;28;20321;-30
2023/08/31 07:59:30;;;;;;;0.35;0.35;;;23.30;61.70;;;23.50;46.78;94540.78;4993658;28;20218;-30
2023/08/31 08:01:58;;;;;;;0.40;0.40;;;23.30;61.70;;;23.51;47.06;94547.72;4993398;28;20234;-32
2023/08/31 08:04:26;;;;;;;0.32;0.32;;;23.30;61.70;;;23.52;46.90;94551.97;4993856;28;20190;-32
2023/08/31 08:06:54;;;;;;;0.40;0.40;;;23.30;61.60;;;23.51;47.28;94553.09;4993514;28;20674;-29
2023/08/31 08:09:21;;;;;;;0.30;0.30;;;23.30;61.60;;;23.51;46.75;94539.69;4993496;28;20234;-30
2023/08/31 08:11:48;;;;;;;0.40;0.40;;;23.30;61.50;;;23.49;46.89;94545.31;4993370;28;20219;-30
2023/08/31 08:14:15;;;;;;;0.38;0.38;;;23.30;61.40;;;23.51;46.66;94553.09;4993436;28;20198;-30
2023/08/31 08:16:43;;;;;;;0.32;0.32;;;23.30;61.50;;;23.52;46.83;94549.31;4993324;28;20242;-30
2023/08/31 08:19:10;;;;;;;0.30;0.30;;;23.30;61.50;;;23.54;47.10;94557.06;4993626;28;20228;-32
2023/08/31 08:21:37;;;;;;;0.40;0.40;;;23.30;61.50;;;23.54;47.18;94549.03;4993467;28;20265;-30
2023/08/31 08:24:04;;;;;;;0.40;0.40;;;23.30;61.40;;;23.53;46.75;94560.81;5077298;28;20236;-30
2023/08/31 08:26:31;;;;;;;0.30;0.30;;;23.30;61.40;;;23.53;46.62;94566.97;4993486;28;20274;-30
2023/08/31 08:28:59;;;;;;;0.32;0.32;;;23.30;61.40;;;23.53;46.54;94552.78;4993721;28;20217;-30
2023/08/31 08:31:26;;;;;;;0.40;0.40;;;23.30;61.30;;;23.54;46.66;94563.22;4993612;28;20538;-32
2023/08/31 08:33:53;;;;;;;0.40;0.40;;;23.30;61.30;;;23.55;46.64;94569.38;4993386;28;20205;-30
2023/08/31 08:36:20;;;;;;;0.30;0.30;;;23.30;61.20;;;23.55;46.48;94562.13;4993300;28;20310;-30
2023/08/31 08:38:47;;;;;;;0.40;0.40;;;23.30;61.20;;;23.57;46.52;94577.91;5077356;28;20190;-30
2023/08/31 08:41:18;;;;;;;0.30;0.30;;;23.30;61.30;;;23.57;46.33;94576.06;4993111;28;20255;-30
2023/08/31 08:43:47;;;;;;;0.50;0.50;;;23.30;61.10;;;23.57;46.31;94568.03;4993308;28;20197;-30
2023/08/31 08:46:15;;;;;;;0.30;0.30;;;23.30;61.10;;;23.59;46.33;94578.44;5076556;28;20289;-31
2023/08/31 08:48:44;;;;;;;0.40;0.40;;;23.30;61.10;;;23.59;46.22;94573.09;4993504;28;20279;-30
2023/08/31 08:51:11;;;;;;;0.30;0.30;;;23.30;60.90;;;23.58;46.25;94576.84;4992640;28;20260;-32
2023/08/31 08:53:42;;;;;;;0.40;0.40;;;23.40;61.00;;;23.59;46.03;94578.44;4993082;28;20552;-30
2023/08/31 08:56:10;;;;;;;0.45;0.45;;;23.40;61.00;;;23.61;46.16;94587.78;4993016;28;20253;-31
2023/08/31 08:58:37;;;;;;;0.38;0.38;;;23.40;61.00;;;23.60;45.94;94588.84;4992793;28;20195;-30
2023/08/31 09:01:06;;;;;;;0.40;0.40;;;23.40;60.90;;;23.61;45.72;94595.81;4992591;28;20298;-31
2023/08/31 09:03:34;;;;;;;0.30;0.30;;;23.40;60.80;;;23.63;45.79;94590.16;4992969;28;20583;-31
2023/08/31 09:06:03;;;;;;;0.30;0.30;;;23.40;60.80;;;23.66;45.81;94598.44;4993255;28;20233;-30
2023/08/31 09:08:33;;;;;;;0.30;0.30;;;23.40;60.90;;;23.68;45.91;94598.16;4994168;28;20489;-30
2023/08/31 09:11:01;;;;;;;0.40;0.40;;;23.40;60.90;;;23.69;45.84;94598.97;4996066;28;20701;-31
2023/08/31 09:13:29;;;;;;;0.40;0.40;;;23.40;60.90;;;23.70;45.73;94601.34;4996304;28;20288;-29
2023/08/31 09:15:57;;;;;;;0.30;0.30;;;23.40;60.70;;;23.72;45.80;94601.88;4996601;28;20233;-34
2023/08/31 09:18:34;;;;;;;0.40;0.40;;;23.50;60.90;;;23.70;45.65;94598.66;4996123;28;20244;-30
2023/08/31 09:21:01;;;;;;;0.30;0.30;;;23.50;60.50;;;23.72;45.67;94596.50;4995008;28;20198;-30
2023/08/31 09:23:29;;;;;;;0.40;0.40;;;23.40;60.60;;;23.74;45.50;94604.25;4996116;28;20206;-29
2023/08/31 09:25:56;;;;;;;0.40;0.40;;;23.50;60.50;;;23.73;45.36;94603.47;4996263;28;20202;-29
2023/08/31 09:28:27;;;;;;;0.40;0.40;;;23.50;60.50;;;23.75;45.44;94605.84;5079688;28;20525;-30
2023/08/31 09:31:06;;;;;;;0.50;0.50;;;23.50;60.50;;;23.75;45.43;94605.84;4996157;28;20199;-30
2023/08/31 09:33:38;;;;;;;0.40;0.40;;;23.50;60.30;;;23.77;45.46;94609.06;4996439;28;20194;-31
2023/08/31 09:36:07;;;;;;;0.30;0.30;;;23.50;60.40;;;23.78;45.48;94605.31;4996029;28;20187;-33
2023/08/31 09:38:45;;;;;;;0.30;0.30;;;23.50;60.40;;;23.78;45.31;94611.44;5079985;28;20202;-30
2023/08/31 09:41:13;;;;;;;0.20;0.20;;;23.50;60.30;;;23.81;45.09;94612.75;4996115;28;20511;-31
2023/08/31 09:43:41;;;;;;;0.45;0.45;;;23.50;60.40;;;23.82;45.26;94619.72;4996048;28;20191;-30
2023/08/31 09:46:10;;;;;;;0.40;0.40;;;23.50;61.30;;;23.82;45.27;94609.78;4996190;28;20222;-30
2023/08/31 09:48:42;;;;;;;0.40;0.40;;;23.50;60.20;;;23.83;45.21;94616.75;4994898;28;20765;-32
2023/08/31 09:51:10;;;;;;;0.32;0.32;;;23.50;60.20;;;23.86;45.25;94617.28;4995762;28;20187;-32
2023/08/31 09:53:38;;;;;;;0.32;0.32;;;23.50;60.30;;;23.87;45.08;94616.19;4995604;28;20198;-29
2023/08/31 09:56:07;;;;;;;0.40;0.40;;;23.50;60.20;;;23.87;44.93;94622.34;4995450;28;20203;-32
2023/08/31 09:58:34;;;;;;;0.32;0.32;;;23.60;60.20;;;23.88;44.94;94618.59;5079497;28;20289;-30
2023/08/31 10:01:02;;;;;;;0.30;0.30;;;23.60;60.10;;;23.88;44.65;94623.16;4995445;28;20205;-31
2023/08/31 10:03:42;;;;;;;0.50;0.50;;;23.60;60.10;;;23.89;44.61;94635.44;4995323;28;20191;-29
2023/08/31 10:06:12;;;;;;;0.30;0.30;;;23.60;59.90;;;23.89;44.54;94633.56;4978737;28;20206;-30
2023/08/31 10:08:41;;;;;;;0.50;0.50;;;23.60;59.80;;;23.89;44.79;94636.25;4995306;28;20251;-30
2023/08/31 10:11:12;;;;;;;0.30;0.30;;;23.60;59.70;;;23.89;44.53;94641.63;4995331;28;20198;-31
2023/08/31 10:13:42;;;;;;;0.40;0.40;;;23.60;59.70;;;23.90;44.54;94635.19;5078292;28;20182;-30
2023/08/31 10:16:11;;;;;;;0.40;0.40;;;23.60;59.50;;;23.92;44.17;94640.25;4995055;28;20729;-30
2023/08/31 10:18:39;;;;;;;0.40;0.40;;;23.60;59.80;;;23.92;44.49;94633.03;5078957;28;20201;-31
2023/08/31 10:21:06;;;;;;;0.30;0.30;;;23.60;59.70;;;23.94;44.59;94641.59;4995348;28;20194;-31
2023/08/31 10:23:35;;;;;;;0.60;0.60;;;23.60;59.70;;;23.94;44.42;94636.22;4995883;28;20198;-28
2023/08/31 10:26:05;;;;;;;0.60;0.60;;;23.60;59.70;;;23.96;44.32;94647.47;4995410;28;20197;-30
2023/08/31 10:28:42;;;;;;;0.40;0.40;;;23.60;59.60;;;23.98;44.27;94644.50;5078995;28;20210;-33